RBD weather

Dallas Executive Airport
Dallas, Texas, United States

Public forecast

Using degrees Fahrenheit for public forecast. Weather courtesy of forecast.io.

Current aviation weather report (METAR) for Dallas Executive Airport

Retrieved 2019/12/10 22:53 UTC (56 minutes ago):

KRBD 102253Z 04003KT 10SM BKN025 07/M01 A3037 RMK AO2 SLP285 T00671011

Closest aviation forecast (TAF) to Dallas Executive Airport

Closest forecast is Dallas Love Field, 10.0 nm (18.5 km) N. Retrieved 2019/12/10 18:40 UTC (5 hours ago):

TAF KDAL 101737Z 1018/1118 36007KT P6SM BKN110 FM102300 02005KT P6SM FEW250 FM110600 06003KT P6SM SKC FM111700 15008KT P6SM SKC